createdAt,value
2023-04-07T00:01:21.679Z,4.32
2023-04-07T00:03:48.757Z,3.95
2023-04-07T00:06:16.266Z,3.72
2023-04-07T00:08:43.008Z,3.72
2023-04-07T00:11:09.863Z,4.80
2023-04-07T00:13:36.685Z,4.00
2023-04-07T00:16:03.485Z,4.05
2023-04-07T00:18:30.576Z,3.95
2023-04-07T00:20:57.334Z,4.32
2023-04-07T00:23:24.122Z,3.95
2023-04-07T00:25:50.971Z,4.10
2023-04-07T00:28:18.043Z,4.30
2023-04-07T00:30:44.809Z,3.67
2023-04-07T00:33:11.590Z,3.50
2023-04-07T00:35:38.491Z,3.60
2023-04-07T00:38:05.290Z,3.38
2023-04-07T00:40:32.096Z,3.70
2023-04-07T00:42:58.931Z,4.43
2023-04-07T00:45:25.897Z,4.03
2023-04-07T00:47:52.690Z,3.90
2023-04-07T00:50:19.611Z,3.30
2023-04-07T00:52:46.327Z,3.83
2023-04-07T00:55:13.020Z,4.25
2023-04-07T00:57:39.874Z,4.05
2023-04-07T01:00:09.012Z,3.65
2023-04-07T01:02:43.737Z,4.15
2023-04-07T01:05:17.044Z,3.80
2023-04-07T01:07:58.455Z,3.70
2023-04-07T01:10:51.686Z,4.97
2023-04-07T01:13:34.035Z,4.18
2023-04-07T01:16:02.519Z,4.30
2023-04-07T01:18:34.558Z,3.80
2023-04-07T01:21:06.700Z,3.70
2023-04-07T01:23:52.618Z,3.75
2023-04-07T01:26:28.436Z,3.50
2023-04-07T01:29:23.337Z,3.72
2023-04-07T01:31:50.182Z,3.60
2023-04-07T01:34:17.531Z,4.25
2023-04-07T01:36:44.489Z,3.90
2023-04-07T01:39:12.056Z,4.13
2023-04-07T01:41:38.951Z,4.20
2023-04-07T01:44:06.872Z,3.90
2023-04-07T01:46:33.996Z,3.70
2023-04-07T01:49:00.838Z,3.65
2023-04-07T01:51:27.811Z,3.85
2023-04-07T01:53:54.694Z,3.55
2023-04-07T01:56:21.641Z,4.45
2023-04-07T01:58:48.713Z,4.15
2023-04-07T02:01:15.510Z,3.95
2023-04-07T02:03:56.578Z,4.20
2023-04-07T02:06:27.750Z,3.83
2023-04-07T02:08:57.615Z,3.90
2023-04-07T02:11:24.347Z,5.10
2023-04-07T02:13:52.613Z,4.05
2023-04-07T02:16:19.575Z,4.25
2023-04-07T02:18:46.959Z,3.70
2023-04-07T02:21:15.606Z,4.25
2023-04-07T02:23:42.412Z,4.00
2023-04-07T02:26:09.800Z,4.22
2023-04-07T02:28:36.575Z,3.80
2023-04-07T02:31:03.400Z,3.90
2023-04-07T02:33:30.389Z,4.25
2023-04-07T02:35:57.183Z,4.38
2023-04-07T02:38:24.039Z,3.78
2023-04-07T02:40:50.876Z,3.80
2023-04-07T02:43:19.142Z,3.97
2023-04-07T02:45:46.008Z,4.05
2023-04-07T02:48:12.797Z,4.65
2023-04-07T02:50:39.634Z,4.00
2023-04-07T02:53:06.961Z,4.22
2023-04-07T02:55:33.698Z,4.53
2023-04-07T02:58:00.703Z,4.22
2023-04-07T03:00:27.447Z,4.38
2023-04-07T03:02:54.486Z,4.53
2023-04-07T03:05:21.388Z,4.00
2023-04-07T03:07:48.225Z,4.30
2023-04-07T03:10:14.953Z,3.60
2023-04-07T03:12:41.700Z,3.97
2023-04-07T03:15:08.860Z,3.70
2023-04-07T03:17:35.752Z,4.25
2023-04-07T03:20:02.543Z,4.10
2023-04-07T03:22:29.337Z,4.25
2023-04-07T03:24:56.212Z,4.13
2023-04-07T03:27:23.008Z,4.68
2023-04-07T03:29:51.364Z,3.92
2023-04-07T03:32:18.350Z,4.70
2023-04-07T03:34:45.301Z,4.82
2023-04-07T03:37:12.132Z,3.38
2023-04-07T03:39:40.074Z,4.30
2023-04-07T03:42:07.103Z,4.07
2023-04-07T03:44:33.998Z,3.65
2023-04-07T03:47:01.154Z,4.43
2023-04-07T03:49:27.881Z,4.57
2023-04-07T03:51:54.867Z,4.60
2023-04-07T03:54:21.692Z,4.50
2023-04-07T03:56:48.510Z,4.32
2023-04-07T03:59:15.357Z,4.40
2023-04-07T04:01:42.150Z,4.40
2023-04-07T04:04:09.158Z,3.83
2023-04-07T04:06:36.132Z,4.32
2023-04-07T04:09:03.048Z,4.57
2023-04-07T04:11:29.812Z,3.97
2023-04-07T04:13:56.929Z,3.63
2023-04-07T04:16:23.756Z,4.93
2023-04-07T04:18:50.954Z,4.07
2023-04-07T04:21:17.750Z,4.10
2023-04-07T04:23:44.628Z,4.28
2023-04-07T04:26:11.420Z,4.22
2023-04-07T04:28:39.057Z,4.18
2023-04-07T04:31:06.055Z,4.25
2023-04-07T04:33:33.237Z,3.60
2023-04-07T04:36:00.003Z,3.80
2023-04-07T04:38:26.743Z,4.97
2023-04-07T04:40:53.485Z,4.00
2023-04-07T04:43:20.478Z,3.85
2023-04-07T04:45:47.944Z,3.90
2023-04-07T04:48:14.794Z,4.00
2023-04-07T04:50:42.478Z,4.50
2023-04-07T04:53:10.314Z,5.10
2023-04-07T04:55:37.355Z,4.93
2023-04-07T04:58:04.175Z,4.95
2023-04-07T05:00:30.991Z,4.78
2023-04-07T05:02:58.136Z,4.57
2023-04-07T05:05:25.198Z,4.50
2023-04-07T05:07:51.999Z,4.65
2023-04-07T05:10:19.318Z,5.05
2023-04-07T05:12:46.269Z,4.10
2023-04-07T05:15:13.059Z,5.18
2023-04-07T05:17:39.948Z,4.88
2023-04-07T05:20:08.963Z,5.40
2023-04-07T05:22:36.443Z,4.30
2023-04-07T05:25:03.589Z,4.80
2023-04-07T05:27:30.367Z,3.90
2023-04-07T05:29:57.114Z,4.63
2023-04-07T05:32:24.085Z,4.70
2023-04-07T05:34:51.398Z,4.20
2023-04-07T05:37:18.199Z,4.28
2023-04-07T05:39:45.020Z,4.38
2023-04-07T05:42:11.756Z,5.03
2023-04-07T05:44:38.524Z,5.00
2023-04-07T05:47:08.954Z,8.45
2023-04-07T05:49:36.508Z,11.98
2023-04-07T05:52:03.600Z,15.10
2023-04-07T05:54:30.376Z,13.25
2023-04-07T05:56:57.338Z,11.48
2023-04-07T05:59:24.105Z,10.50
2023-04-07T06:01:50.967Z,9.13
2023-04-07T06:04:18.143Z,7.68
2023-04-07T06:06:44.913Z,7.28
2023-04-07T06:09:11.739Z,6.68
2023-04-07T06:11:38.511Z,5.50
2023-04-07T06:14:05.339Z,5.00
2023-04-07T06:16:32.194Z,4.70
2023-04-07T06:18:59.001Z,3.60
2023-04-07T06:21:27.416Z,3.47
2023-04-07T06:23:54.105Z,3.45
2023-04-07T06:26:21.826Z,3.10
2023-04-07T06:28:48.579Z,3.75
2023-04-07T06:31:15.643Z,3.20
2023-04-07T06:33:42.918Z,3.80
2023-04-07T06:36:09.800Z,3.80
2023-04-07T06:38:36.676Z,3.35
2023-04-07T06:41:03.522Z,4.10
2023-04-07T06:43:30.819Z,4.25
2023-04-07T06:45:57.603Z,3.67
2023-04-07T06:48:24.384Z,3.65
2023-04-07T06:50:51.228Z,4.10
2023-04-07T06:53:18.081Z,3.50
2023-04-07T06:55:45.739Z,4.30
2023-04-07T06:58:12.563Z,3.42
2023-04-07T07:00:39.304Z,2.90
2023-04-07T07:03:06.626Z,2.47
2023-04-07T07:05:33.640Z,2.80
2023-04-07T07:08:00.520Z,4.10
2023-04-07T07:10:27.420Z,3.87
2023-04-07T07:12:54.187Z,2.70
2023-04-07T07:15:21.113Z,3.40
2023-04-07T07:17:48.471Z,3.43
2023-04-07T07:20:15.368Z,2.70
2023-04-07T07:22:42.137Z,3.50
2023-04-07T07:25:09.137Z,2.83
2023-04-07T07:27:36.396Z,2.87
2023-04-07T07:30:03.249Z,3.30
2023-04-07T07:32:30.086Z,3.10
2023-04-07T07:34:56.848Z,3.23
2023-04-07T07:37:24.011Z,2.80
2023-04-07T07:39:51.278Z,3.07
2023-04-07T07:42:18.066Z,2.13
2023-04-07T07:44:44.963Z,2.60
2023-04-07T07:47:12.601Z,2.20
2023-04-07T07:49:39.725Z,2.60
2023-04-07T07:52:07.324Z,2.73
2023-04-07T07:54:35.046Z,3.23
2023-04-07T07:57:03.104Z,3.40
2023-04-07T07:59:30.662Z,3.20
2023-04-07T08:01:57.572Z,2.90
2023-04-07T08:04:24.549Z,2.60
2023-04-07T08:06:51.666Z,3.50
2023-04-07T08:09:19.497Z,2.57
2023-04-07T08:11:48.559Z,3.70
2023-04-07T08:14:15.867Z,3.50
2023-04-07T08:16:43.017Z,3.10
2023-04-07T08:19:09.959Z,3.10
2023-04-07T08:21:37.870Z,3.23
2023-04-07T08:24:04.766Z,3.73
2023-04-07T08:26:31.747Z,3.80
2023-04-07T08:28:58.833Z,3.67
2023-04-07T08:31:26.332Z,2.93
2023-04-07T08:33:57.480Z,2.97
2023-04-07T08:36:25.140Z,2.47
2023-04-07T08:38:52.197Z,2.60
2023-04-07T08:41:31.544Z,3.03
2023-04-07T08:43:58.397Z,3.00
2023-04-07T08:46:25.877Z,2.80
2023-04-07T08:48:53.657Z,2.70
2023-04-07T08:51:27.894Z,2.90
2023-04-07T08:53:54.934Z,3.07
2023-04-07T08:56:21.957Z,3.30
2023-04-07T08:58:49.010Z,3.57
2023-04-07T09:01:18.571Z,3.50
2023-04-07T09:03:46.471Z,3.43
2023-04-07T09:06:13.701Z,3.43
2023-04-07T09:08:40.732Z,3.07
2023-04-07T09:11:07.475Z,3.50
2023-04-07T09:13:34.300Z,3.93
2023-04-07T09:16:02.062Z,3.73
2023-04-07T09:18:29.119Z,3.03
2023-04-07T09:21:03.451Z,3.30
2023-04-07T09:23:31.968Z,3.60
2023-04-07T09:26:18.441Z,3.10
2023-04-07T09:28:46.047Z,2.87
2023-04-07T09:31:13.001Z,3.17
2023-04-07T09:33:39.866Z,3.80
2023-04-07T09:36:07.278Z,3.00
2023-04-07T09:38:35.272Z,3.10
2023-04-07T09:41:13.499Z,2.70
2023-04-07T09:43:41.975Z,3.40
2023-04-07T09:46:12.966Z,2.97
2023-04-07T09:48:40.054Z,3.70
2023-04-07T09:51:11.631Z,3.20
2023-04-07T09:53:51.614Z,3.17
2023-04-07T09:56:22.204Z,3.37
2023-04-07T09:58:51.489Z,3.40
2023-04-07T10:01:18.551Z,4.07
2023-04-07T10:03:47.593Z,3.30
2023-04-07T10:06:14.912Z,3.00
2023-04-07T10:08:42.625Z,2.93
2023-04-07T10:11:10.041Z,3.83
2023-04-07T10:13:37.762Z,3.43
2023-04-07T10:16:06.222Z,3.23
2023-04-07T10:18:36.919Z,2.80
2023-04-07T10:21:05.103Z,2.80
2023-04-07T10:23:49.266Z,3.00
2023-04-07T10:26:18.240Z,3.37
2023-04-07T10:28:46.157Z,3.10
2023-04-07T10:31:13.163Z,3.63
2023-04-07T10:33:53.386Z,3.17
2023-04-07T10:36:21.076Z,3.43
2023-04-07T10:39:07.025Z,2.97
2023-04-07T10:41:43.207Z,2.80
2023-04-07T10:44:12.124Z,2.53
2023-04-07T10:46:52.247Z,3.20
2023-04-07T10:49:19.280Z,3.00
2023-04-07T10:52:06.455Z,3.17
2023-04-07T10:54:33.186Z,2.40
2023-04-07T10:57:03.319Z,2.40
2023-04-07T10:59:30.718Z,3.00
2023-04-07T11:02:13.133Z,2.67
2023-04-07T11:04:43.887Z,2.60
2023-04-07T11:07:11.577Z,3.13
2023-04-07T11:09:38.384Z,3.33
2023-04-07T11:12:06.208Z,3.03
2023-04-07T11:14:33.468Z,3.13
2023-04-07T11:17:03.778Z,2.60
2023-04-07T11:19:32.434Z,2.67
2023-04-07T11:22:28.817Z,2.80
2023-04-07T11:24:57.204Z,3.30
2023-04-07T11:27:24.110Z,2.43
2023-04-07T11:29:51.159Z,2.20
2023-04-07T11:32:25.850Z,2.80
2023-04-07T11:34:54.246Z,2.37
2023-04-07T11:37:22.059Z,2.50
2023-04-07T11:39:55.682Z,2.70
2023-04-07T11:42:32.479Z,3.53
2023-04-07T11:44:59.345Z,2.70
2023-04-07T11:47:39.306Z,2.67
2023-04-07T11:50:07.152Z,2.47
2023-04-07T11:52:44.106Z,2.70
2023-04-07T11:55:22.477Z,2.30
2023-04-07T11:57:51.277Z,2.30
2023-04-07T12:00:18.591Z,2.33
2023-04-07T12:02:45.748Z,2.70
2023-04-07T12:05:12.789Z,2.53
2023-04-07T12:07:42.006Z,2.37
2023-04-07T12:10:22.400Z,2.60
2023-04-07T12:12:49.413Z,2.80
2023-04-07T12:15:16.770Z,2.00
2023-04-07T12:17:47.637Z,2.50
2023-04-07T12:20:15.500Z,2.10
2023-04-07T12:22:42.672Z,2.00
2023-04-07T12:25:09.642Z,1.60
2023-04-07T12:27:43.330Z,1.83
2023-04-07T12:30:11.677Z,2.13
2023-04-07T12:32:38.746Z,1.93
2023-04-07T12:35:06.154Z,1.50
2023-04-07T12:37:33.222Z,1.83
2023-04-07T12:40:00.591Z,1.73
2023-04-07T12:42:28.076Z,1.60
2023-04-07T12:44:55.174Z,1.83
2023-04-07T12:47:22.016Z,2.10
2023-04-07T12:49:50.154Z,2.30
2023-04-07T12:52:17.260Z,2.47
2023-04-07T12:54:45.520Z,2.60
2023-04-07T12:57:12.635Z,2.50
2023-04-07T12:59:39.517Z,2.00
2023-04-07T13:02:06.464Z,2.30
2023-04-07T13:04:33.530Z,1.80
2023-04-07T13:07:03.161Z,1.90
2023-04-07T13:09:29.941Z,2.20
2023-04-07T13:11:57.688Z,2.20
2023-04-07T13:14:24.485Z,1.90
2023-04-07T13:16:51.360Z,1.93
2023-04-07T13:19:18.296Z,1.90
2023-04-07T13:21:47.390Z,1.40
2023-04-07T13:24:15.152Z,1.53
2023-04-07T13:26:41.917Z,1.93
2023-04-07T13:29:08.683Z,1.40
2023-04-07T13:31:35.472Z,1.17
2023-04-07T13:34:02.385Z,1.30
2023-04-07T13:36:30.271Z,1.53
2023-04-07T13:38:57.365Z,1.43
2023-04-07T13:41:24.115Z,1.40
2023-04-07T13:43:51.394Z,1.60
2023-04-07T13:46:27.936Z,1.33
2023-04-07T13:48:56.386Z,1.23
2023-04-07T13:51:23.239Z,1.40
2023-04-07T13:53:50.305Z,1.10
2023-04-07T13:56:17.359Z,1.20
2023-04-07T13:58:44.490Z,1.33
2023-04-07T14:01:11.490Z,1.20
2023-04-07T14:03:38.649Z,1.00
2023-04-07T14:06:05.678Z,1.30
2023-04-07T14:08:32.561Z,1.53
2023-04-07T14:10:59.376Z,1.00
2023-04-07T14:13:26.389Z,1.30
2023-04-07T14:15:53.909Z,1.10
2023-04-07T14:18:21.148Z,1.27
2023-04-07T14:20:47.917Z,1.20
2023-04-07T14:23:20.614Z,1.40
2023-04-07T14:25:53.522Z,1.27
2023-04-07T14:28:21.193Z,1.50
2023-04-07T14:30:48.219Z,1.20
2023-04-07T14:33:17.336Z,1.63
2023-04-07T14:35:44.381Z,1.23
2023-04-07T14:38:11.620Z,1.17
2023-04-07T14:40:38.498Z,0.93
2023-04-07T14:43:07.712Z,1.73
2023-04-07T14:45:35.717Z,1.40
2023-04-07T14:48:02.950Z,1.50
2023-04-07T14:50:32.686Z,1.30
2023-04-07T14:52:59.867Z,1.20
2023-04-07T14:55:26.666Z,1.50
2023-04-07T14:57:53.801Z,1.40
2023-04-07T15:00:20.677Z,1.60
2023-04-07T15:02:47.740Z,1.80
2023-04-07T15:05:15.099Z,1.67
2023-04-07T15:07:41.903Z,1.17
2023-04-07T15:10:09.061Z,0.90
2023-04-07T15:12:35.872Z,1.00
2023-04-07T15:15:02.770Z,1.17
2023-04-07T15:17:40.555Z,1.40
2023-04-07T15:20:10.676Z,1.47
2023-04-07T15:22:37.404Z,1.60
2023-04-07T15:25:04.522Z,1.10
2023-04-07T15:27:31.471Z,1.20
2023-04-07T15:29:58.751Z,0.90
2023-04-07T15:32:25.751Z,1.03
2023-04-07T15:34:52.824Z,0.87
2023-04-07T15:37:19.681Z,1.00
2023-04-07T15:39:46.527Z,1.10
2023-04-07T15:42:13.426Z,1.20
2023-04-07T15:44:40.417Z,1.10
2023-04-07T15:47:07.597Z,1.30
2023-04-07T15:49:37.200Z,1.30
2023-04-07T15:52:07.346Z,1.17
2023-04-07T15:54:34.353Z,1.40
2023-04-07T15:57:01.267Z,2.17
2023-04-07T15:59:30.931Z,1.87
2023-04-07T16:01:58.192Z,2.00
2023-04-07T16:04:25.039Z,2.33
2023-04-07T16:06:51.927Z,1.23
2023-04-07T16:09:18.713Z,1.47
2023-04-07T16:11:45.427Z,1.90
2023-04-07T16:14:12.202Z,2.10
2023-04-07T16:16:41.295Z,1.67
2023-04-07T16:19:08.307Z,1.63
2023-04-07T16:21:35.147Z,1.90
2023-04-07T16:24:02.013Z,1.80
2023-04-07T16:26:28.825Z,2.33
2023-04-07T16:28:55.698Z,1.83
2023-04-07T16:31:22.468Z,2.30
2023-04-07T16:33:51.148Z,2.53
2023-04-07T16:36:18.035Z,1.70
2023-04-07T16:38:44.748Z,2.10
2023-04-07T16:41:11.528Z,1.90
2023-04-07T16:43:46.704Z,1.83
2023-04-07T16:46:14.039Z,2.80
2023-04-07T16:48:40.935Z,2.50
2023-04-07T16:51:07.714Z,2.20
2023-04-07T16:53:34.526Z,2.00
2023-04-07T16:56:01.688Z,2.30
2023-04-07T16:58:28.415Z,2.30
2023-04-07T17:00:55.163Z,2.30
2023-04-07T17:03:22.115Z,3.10
2023-04-07T17:05:49.479Z,2.60
2023-04-07T17:08:16.722Z,2.20
2023-04-07T17:10:43.524Z,1.97
2023-04-07T17:13:10.318Z,2.30
2023-04-07T17:15:38.465Z,2.50
2023-04-07T17:18:05.510Z,2.00
2023-04-07T17:20:32.394Z,2.50
2023-04-07T17:22:59.168Z,2.43
2023-04-07T17:25:25.976Z,2.07
2023-04-07T17:27:55.108Z,2.13
2023-04-07T17:30:22.049Z,2.47
2023-04-07T17:32:50.628Z,2.00
2023-04-07T17:35:17.647Z,2.00
2023-04-07T17:37:44.444Z,2.00
2023-04-07T17:40:11.878Z,3.17
2023-04-07T17:42:38.890Z,2.30
2023-04-07T17:45:09.290Z,2.60
2023-04-07T17:47:36.361Z,2.00
2023-04-07T17:50:03.860Z,2.00
2023-04-07T17:52:30.648Z,2.60
2023-04-07T17:54:57.726Z,2.70
2023-04-07T17:57:24.935Z,2.50
2023-04-07T17:59:51.718Z,2.17
2023-04-07T18:02:19.013Z,1.90
2023-04-07T18:04:46.767Z,1.90
2023-04-07T18:07:13.777Z,2.27
2023-04-07T18:09:42.930Z,2.10
2023-04-07T18:12:09.766Z,2.30
2023-04-07T18:14:36.800Z,2.07
2023-04-07T18:17:03.753Z,2.30
2023-04-07T18:19:30.569Z,2.00
2023-04-07T18:21:57.385Z,2.50
2023-04-07T18:24:24.201Z,2.70
2023-04-07T18:26:51.193Z,2.07
2023-04-07T18:29:18.028Z,2.17
2023-04-07T18:31:45.243Z,2.30
2023-04-07T18:34:12.340Z,2.10
2023-04-07T18:36:41.196Z,1.77
2023-04-07T18:39:08.110Z,2.13
2023-04-07T18:41:35.008Z,2.47
2023-04-07T18:44:01.729Z,2.10
2023-04-07T18:46:29.056Z,2.00
2023-04-07T18:48:55.880Z,2.60
2023-04-07T18:51:22.719Z,2.93
2023-04-07T18:53:49.804Z,2.27
2023-04-07T18:56:16.853Z,3.00
2023-04-07T18:58:43.882Z,2.10
2023-04-07T19:01:12.406Z,2.23
2023-04-07T19:03:39.841Z,2.43
2023-04-07T19:06:06.872Z,2.10
2023-04-07T19:08:34.015Z,2.13
2023-04-07T19:11:00.832Z,2.20
2023-04-07T19:13:28.027Z,2.20
2023-04-07T19:15:55.335Z,3.17
2023-04-07T19:18:22.180Z,2.77
2023-04-07T19:20:49.206Z,2.43
2023-04-07T19:23:16.012Z,3.00
2023-04-07T19:25:45.472Z,2.70
2023-04-07T19:28:12.833Z,2.77
2023-04-07T19:30:39.870Z,2.57
2023-04-07T19:33:06.857Z,2.80
2023-04-07T19:35:33.932Z,2.53
2023-04-07T19:38:01.715Z,2.43
2023-04-07T19:40:28.692Z,2.10
2023-04-07T19:42:57.148Z,2.50
2023-04-07T19:45:24.031Z,2.50
2023-04-07T19:47:50.854Z,1.60
2023-04-07T19:50:18.096Z,1.70
2023-04-07T19:52:45.571Z,1.70
2023-04-07T19:55:13.224Z,1.40
2023-04-07T19:57:43.125Z,2.17
2023-04-07T20:00:10.501Z,2.17
2023-04-07T20:02:38.486Z,1.90
2023-04-07T20:05:05.722Z,2.20
2023-04-07T20:07:33.326Z,2.27
2023-04-07T20:10:00.340Z,2.10
2023-04-07T20:12:27.128Z,2.50
2023-04-07T20:14:53.952Z,2.23
2023-04-07T20:17:21.016Z,2.37
2023-04-07T20:19:47.982Z,1.77
2023-04-07T20:22:14.801Z,1.80
2023-04-07T20:24:41.562Z,1.97
2023-04-07T20:27:08.410Z,2.17
2023-04-07T20:29:35.187Z,2.43
2023-04-07T20:32:01.985Z,2.87
2023-04-07T20:34:28.997Z,2.50
2023-04-07T20:36:55.971Z,3.00
2023-04-07T20:39:22.771Z,3.43
2023-04-07T20:41:49.569Z,3.10
2023-04-07T20:44:16.741Z,2.50
2023-04-07T20:46:44.744Z,2.37
2023-04-07T20:49:11.536Z,2.53
2023-04-07T20:51:38.334Z,2.10
2023-04-07T20:54:05.279Z,2.73
2023-04-07T20:56:32.196Z,1.93
2023-04-07T20:58:59.224Z,2.80
2023-04-07T21:01:26.190Z,1.93
2023-04-07T21:03:54.116Z,2.40
2023-04-07T21:06:21.574Z,2.20
2023-04-07T21:08:48.473Z,2.40
2023-04-07T21:11:15.630Z,2.13
2023-04-07T21:13:42.438Z,2.27
2023-04-07T21:16:09.537Z,2.10
2023-04-07T21:18:36.408Z,2.10
2023-04-07T21:21:03.585Z,2.17
2023-04-07T21:23:32.348Z,2.30
2023-04-07T21:26:05.340Z,2.50
2023-04-07T21:28:32.093Z,2.10
2023-04-07T21:30:59.359Z,2.60
2023-04-07T21:33:26.575Z,2.20
2023-04-07T21:35:55.081Z,2.23
2023-04-07T21:38:21.955Z,1.63
2023-04-07T21:40:49.041Z,2.50
2023-04-07T21:43:16.048Z,1.93
2023-04-07T21:45:42.794Z,2.27
2023-04-07T21:48:09.840Z,2.20
2023-04-07T21:50:36.911Z,2.23
2023-04-07T21:53:03.735Z,2.07
2023-04-07T21:55:30.515Z,2.53
2023-04-07T21:57:58.237Z,2.30
2023-04-07T22:00:25.079Z,1.80
2023-04-07T22:02:52.228Z,2.20
2023-04-07T22:05:19.594Z,2.00
2023-04-07T22:07:46.836Z,2.20
2023-04-07T22:10:13.896Z,2.00
2023-04-07T22:12:40.991Z,2.33
2023-04-07T22:15:09.019Z,1.77
2023-04-07T22:17:35.983Z,2.07
2023-04-07T22:20:03.626Z,1.80
2023-04-07T22:22:30.533Z,2.30
2023-04-07T22:24:57.719Z,1.70
2023-04-07T22:27:24.524Z,1.57
2023-04-07T22:29:51.370Z,1.70
2023-04-07T22:32:18.236Z,1.87
2023-04-07T22:34:45.696Z,1.70
2023-04-07T22:37:12.881Z,1.63
2023-04-07T22:39:39.732Z,1.63
2023-04-07T22:42:06.552Z,1.60
2023-04-07T22:44:33.473Z,1.47
2023-04-07T22:47:00.656Z,2.20
2023-04-07T22:49:28.229Z,1.93
2023-04-07T22:51:57.014Z,1.80
2023-04-07T22:54:24.138Z,1.70
2023-04-07T22:56:51.130Z,1.80
2023-04-07T22:59:18.114Z,2.53
2023-04-07T23:01:44.989Z,2.10
2023-04-07T23:04:11.852Z,2.03
2023-04-07T23:06:40.621Z,2.00
2023-04-07T23:09:07.470Z,2.10
2023-04-07T23:11:34.328Z,1.80
2023-04-07T23:14:05.021Z,2.57
2023-04-07T23:16:32.922Z,1.60
2023-04-07T23:19:00.025Z,1.70
2023-04-07T23:21:29.065Z,2.10
2023-04-07T23:23:57.686Z,1.90
2023-04-07T23:26:24.556Z,2.40
2023-04-07T23:28:51.713Z,2.23
2023-04-07T23:31:18.766Z,2.40
2023-04-07T23:33:46.720Z,1.97
2023-04-07T23:36:13.967Z,2.13
2023-04-07T23:38:40.891Z,2.40
2023-04-07T23:41:08.624Z,1.80
2023-04-07T23:43:35.797Z,1.80
2023-04-07T23:46:03.029Z,2.33
2023-04-07T23:48:31.011Z,2.17
2023-04-07T23:50:59.836Z,2.20
2023-04-07T23:53:26.650Z,1.70
2023-04-07T23:55:53.438Z,1.77
2023-04-07T23:58:20.400Z,2.23
